Time;durP1;ratioP1;P1;durP2;ratioP2;P2;SDS_P1;SDS_P2;PMS_P1;PMS_P2;Temp;Humidity;BMP_temperature;BMP_pressure;BME280_temperature;BME280_humidity;BME280_pressure;Samples;Min_cycle;Max_cycle;Signal;HPM_P1;HPM_P2
2023/07/18 00:02:06;;;;;;;1.60;0.80;;;20.70;57.70;;;;;;5058467;28;20040;-80
2023/07/18 00:04:32;;;;;;;0.85;0.77;;;20.60;57.80;;;;;;5042476;28;20377;-81
2023/07/18 00:06:58;;;;;;;1.33;0.95;;;20.50;57.80;;;;;;5058770;28;20043;-80
2023/07/18 00:09:24;;;;;;;0.77;0.77;;;20.50;57.80;;;;;;5009152;28;20086;-80
2023/07/18 00:11:50;;;;;;;0.95;0.90;;;20.50;57.90;;;;;;5058255;28;20566;-81
2023/07/18 00:14:16;;;;;;;1.17;0.80;;;20.50;57.90;;;;;;5057834;28;20138;-80
2023/07/18 00:16:44;;;;;;;2.88;0.93;;;20.50;58.00;;;;;;5042345;28;20071;-80
2023/07/18 00:19:12;;;;;;;0.75;0.75;;;20.40;58.00;;;;;;5058172;28;20062;-81
2023/07/18 00:21:40;;;;;;;1.15;0.93;;;20.40;58.00;;;;;;5057949;28;20029;-80
2023/07/18 00:24:07;;;;;;;0.95;0.82;;;20.40;58.10;;;;;;5058046;28;20043;-80
2023/07/18 00:26:33;;;;;;;1.38;0.80;;;20.40;58.10;;;;;;5058111;28;20028;-80
2023/07/18 00:28:59;;;;;;;1.00;0.90;;;20.40;58.10;;;;;;5041337;28;20050;-80
2023/07/18 00:31:26;;;;;;;1.98;1.00;;;20.30;58.10;;;;;;5041211;28;20525;-81
2023/07/18 00:33:52;;;;;;;1.67;1.05;;;20.30;58.20;;;;;;5057414;28;20118;-80
2023/07/18 00:36:18;;;;;;;1.50;0.90;;;20.30;58.20;;;;;;5057932;28;20124;-82
2023/07/18 00:38:44;;;;;;;1.33;0.90;;;20.30;58.30;;;;;;5076087;28;20515;-80
2023/07/18 00:41:11;;;;;;;0.88;0.88;;;20.30;58.30;;;;;;5041099;28;20473;-80
2023/07/18 00:43:38;;;;;;;1.70;1.00;;;20.30;58.30;;;;;;5041277;28;20043;-80
2023/07/18 00:46:05;;;;;;;1.30;0.85;;;20.20;58.40;;;;;;5041242;28;20033;-80
2023/07/18 00:48:34;;;;;;;1.20;1.00;;;20.20;58.40;;;;;;5058274;28;20353;-80
2023/07/18 00:51:07;;;;;;;1.52;1.08;;;20.20;58.40;;;;;;5057751;28;20086;-80
2023/07/18 00:53:33;;;;;;;1.42;0.90;;;20.10;58.40;;;;;;5057509;28;20060;-80
2023/07/18 00:56:00;;;;;;;2.13;0.80;;;20.20;58.50;;;;;;5057128;28;20028;-80
2023/07/18 00:58:28;;;;;;;1.50;0.85;;;20.10;58.60;;;;;;5057452;28;20128;-81
2023/07/18 01:00:54;;;;;;;1.00;0.90;;;20.10;58.50;;;;;;5057203;28;20035;-80
2023/07/18 01:03:20;;;;;;;1.45;0.80;;;20.10;58.60;;;;;;5057949;28;20033;-81
2023/07/18 01:05:46;;;;;;;1.05;0.82;;;20.10;58.60;;;;;;5040144;28;20086;-80
2023/07/18 01:08:12;;;;;;;2.58;1.15;;;20.00;58.60;;;;;;5057012;28;20025;-80
2023/07/18 01:10:38;;;;;;;1.30;1.15;;;20.00;58.60;;;;;;5007815;28;20416;-80
2023/07/18 01:13:04;;;;;;;1.50;1.00;;;20.00;58.60;;;;;;5056976;28;20446;-80
2023/07/18 01:15:32;;;;;;;1.58;0.80;;;20.00;58.70;;;;;;5040482;28;20028;-80
2023/07/18 01:18:02;;;;;;;1.15;0.73;;;20.00;59.30;;;;;;5056888;28;20025;-80
2023/07/18 01:20:28;;;;;;;1.15;0.98;;;19.90;58.70;;;;;;5074752;28;20033;-80
2023/07/18 01:23:00;;;;;;;1.02;0.88;;;19.90;58.80;;;;;;5074561;28;20039;-80
2023/07/18 01:25:27;;;;;;;0.82;0.75;;;19.90;58.80;;;;;;5056652;28;20457;-80
2023/07/18 01:27:55;;;;;;;1.80;1.10;;;19.90;58.70;;;;;;5074648;28;20052;-80
2023/07/18 01:30:25;;;;;;;1.60;1.00;;;19.90;58.80;;;;;;5056991;28;20033;-80
2023/07/18 01:32:52;;;;;;;0.77;0.73;;;19.80;58.80;;;;;;5056640;28;20033;-80
2023/07/18 01:35:19;;;;;;;1.25;0.80;;;19.80;58.90;;;;;;5039835;28;20127;-80
2023/07/18 01:37:46;;;;;;;0.80;0.80;;;19.80;58.90;;;;;;5056329;28;20056;-80
2023/07/18 01:40:15;;;;;;;1.25;0.90;;;19.70;58.90;;;;;;5056798;28;20032;-80
2023/07/18 01:42:42;;;;;;;1.02;0.93;;;19.70;58.90;;;;;;5056440;28;20029;-80
2023/07/18 01:45:09;;;;;;;1.05;0.90;;;19.70;58.90;;;;;;5056576;28;20112;-80
2023/07/18 01:47:40;;;;;;;1.52;0.90;;;19.70;58.90;;;;;;5056267;28;20024;-80
2023/07/18 01:50:07;;;;;;;1.83;1.00;;;19.70;59.00;;;;;;5056654;28;20036;-80
2023/07/18 01:52:36;;;;;;;0.88;0.88;;;19.70;59.00;;;;;;5052605;28;20524;-80
2023/07/18 01:55:05;;;;;;;2.20;0.90;;;19.60;59.00;;;;;;5036328;28;20040;-80
2023/07/18 01:57:40;;;;;;;1.55;0.88;;;19.60;59.00;;;;;;5052850;28;20483;-80
2023/07/18 02:00:10;;;;;;;1.55;0.93;;;19.60;59.00;;;;;;5053166;28;20052;-80
2023/07/18 02:02:51;;;;;;;1.58;1.23;;;19.60;59.00;;;;;;5052654;28;20041;-80
2023/07/18 02:05:22;;;;;;;1.02;0.90;;;19.60;59.10;;;;;;5052680;28;20531;-80
2023/07/18 02:07:48;;;;;;;1.20;1.00;;;19.50;59.00;;;;;;5036264;28;20484;-80
2023/07/18 02:10:16;;;;;;;1.00;0.90;;;19.50;59.00;;;;;;5052237;28;20033;-80
2023/07/18 02:12:42;;;;;;;0.95;0.85;;;19.50;59.10;;;;;;5036247;28;20033;-82
2023/07/18 02:15:09;;;;;;;0.88;0.88;;;19.50;59.10;;;;;;5052250;28;20029;-80
2023/07/18 02:17:35;;;;;;;1.05;0.90;;;19.40;59.10;;;;;;5003654;28;20559;-84
2023/07/18 02:20:06;;;;;;;1.10;1.00;;;19.40;59.10;;;;;;5052633;28;20025;-80
2023/07/18 02:22:35;;;;;;;1.60;1.27;;;19.40;59.20;;;;;;5052945;28;20036;-80
2023/07/18 02:25:03;;;;;;;1.17;0.90;;;19.40;59.20;;;;;;5052219;28;20025;-80
2023/07/18 02:27:32;;;;;;;1.10;1.00;;;19.30;59.10;;;;;;5052497;28;20114;-80
2023/07/18 02:30:00;;;;;;;2.55;1.20;;;19.40;59.30;;;;;;5052312;28;20021;-81
2023/07/18 02:32:30;;;;;;;1.80;0.93;;;19.30;59.20;;;;;;5052435;28;20041;-80
2023/07/18 02:34:57;;;;;;;1.67;1.00;;;19.30;59.30;;;;;;5036026;28;20143;-82
2023/07/18 02:37:24;;;;;;;1.15;0.90;;;19.30;59.30;;;;;;5035490;28;20033;-80
2023/07/18 02:39:50;;;;;;;0.95;0.90;;;19.30;59.30;;;;;;5036441;28;20523;-80
2023/07/18 02:42:17;;;;;;;1.60;1.00;;;19.20;59.30;;;;;;5052459;28;20029;-80
2023/07/18 02:44:44;;;;;;;1.58;0.80;;;19.20;59.30;;;;;;5053679;28;20025;-80
2023/07/18 02:47:10;;;;;;;1.30;1.10;;;19.20;59.40;;;;;;5035571;28;20037;-80
2023/07/18 02:49:35;;;;;;;1.63;1.05;;;19.20;59.40;;;;;;5053049;28;20029;-80
2023/07/18 02:52:02;;;;;;;1.60;1.10;;;19.20;59.40;;;;;;5052240;28;20087;-80
2023/07/18 02:54:29;;;;;;;1.45;1.10;;;19.10;59.40;;;;;;5051763;28;20053;-80
2023/07/18 02:56:56;;;;;;;1.25;0.90;;;19.10;59.50;;;;;;5035472;28;20033;-80
2023/07/18 02:59:22;;;;;;;1.77;0.90;;;19.10;59.50;;;;;;5035450;28;20040;-81
2023/07/18 03:01:57;;;;;;;1.15;1.02;;;19.10;59.50;;;;;;5035856;28;20044;-80
2023/07/18 03:04:24;;;;;;;1.10;1.00;;;19.10;59.60;;;;;;5052716;28;20044;-80
2023/07/18 03:06:56;;;;;;;1.35;1.02;;;19.00;59.50;;;;;;5051960;28;20021;-81
2023/07/18 03:09:23;;;;;;;1.77;1.25;;;19.00;59.60;;;;;;5036243;28;20033;-81
2023/07/18 03:11:52;;;;;;;1.25;0.93;;;19.00;59.60;;;;;;5035442;28;20526;-80
2023/07/18 03:14:18;;;;;;;0.90;0.90;;;19.00;59.60;;;;;;5053944;28;20044;-79
2023/07/18 03:16:45;;;;;;;0.98;0.90;;;18.90;59.60;;;;;;5052050;28;20063;-80
2023/07/18 03:19:11;;;;;;;1.80;1.02;;;19.00;59.70;;;;;;5051624;28;20111;-80
2023/07/18 03:21:37;;;;;;;1.23;1.05;;;18.90;59.70;;;;;;5037314;28;20029;-79
2023/07/18 03:24:07;;;;;;;1.27;1.00;;;18.90;59.60;;;;;;5056996;28;20065;-80
2023/07/18 03:26:38;;;;;;;2.08;1.38;;;18.90;59.70;;;;;;5040162;28;20048;-79
2023/07/18 03:29:05;;;;;;;1.00;0.90;;;18.90;59.80;;;;;;5055648;28;20466;-80
2023/07/18 03:31:32;;;;;;;2.25;1.15;;;18.80;59.70;;;;;;5057156;28;20021;-80
2023/07/18 03:33:58;;;;;;;1.73;0.98;;;18.80;60.40;;;;;;5023292;28;20078;-79
2023/07/18 03:36:24;;;;;;;1.25;1.00;;;18.80;59.70;;;;;;5055574;28;20424;-81
2023/07/18 03:38:50;;;;;;;1.42;0.95;;;18.80;59.80;;;;;;5038766;28;20036;-79
2023/07/18 03:41:16;;;;;;;0.90;0.90;;;18.80;59.80;;;;;;5022621;28;20386;-80
2023/07/18 03:43:42;;;;;;;2.90;1.17;;;18.80;59.80;;;;;;5055658;28;20048;-84
2023/07/18 03:46:07;;;;;;;2.35;1.08;;;18.80;59.90;;;;;;5038696;28;20440;-79
2023/07/18 03:48:34;;;;;;;1.25;0.90;;;18.70;59.80;;;;;;5056135;28;20068;-83
2023/07/18 03:51:05;;;;;;;1.17;0.98;;;18.70;59.90;;;;;;5056418;28;20116;-80
2023/07/18 03:53:31;;;;;;;1.52;1.15;;;18.70;60.00;;;;;;5055225;28;20057;-80
2023/07/18 03:56:04;;;;;;;1.50;1.02;;;18.70;60.00;;;;;;5055265;28;20029;-80
2023/07/18 03:58:30;;;;;;;1.83;1.20;;;18.70;60.00;;;;;;5022085;28;20029;-80
2023/07/18 04:00:56;;;;;;;2.33;1.27;;;18.60;59.90;;;;;;5055146;28;20091;-82
2023/07/18 04:03:26;;;;;;;1.25;0.90;;;18.60;60.30;;;;;;5039107;28;20409;-79
2023/07/18 04:05:52;;;;;;;1.13;1.02;;;18.60;60.00;;;;;;5054995;28;20028;-80
2023/07/18 04:08:18;;;;;;;1.10;0.98;;;18.60;60.00;;;;;;5022029;28;20033;-80
2023/07/18 04:10:44;;;;;;;1.30;1.08;;;18.60;60.00;;;;;;5038410;28;20033;-84
2023/07/18 04:13:10;;;;;;;1.50;1.00;;;18.50;60.00;;;;;;5038269;28;20132;-79
2023/07/18 04:15:36;;;;;;;1.73;1.10;;;18.50;60.00;;;;;;5055799;28;20380;-79
2023/07/18 04:18:02;;;;;;;1.27;1.10;;;18.50;60.10;;;;;;5038096;28;20040;-80
2023/07/18 04:20:28;;;;;;;1.25;1.15;;;18.50;60.10;;;;;;5055499;28;20031;-82
2023/07/18 04:22:54;;;;;;;1.13;1.00;;;18.50;60.20;;;;;;5038979;28;20457;-82
2023/07/18 04:25:19;;;;;;;1.10;0.93;;;18.50;60.20;;;;;;5054512;28;20477;-80
2023/07/18 04:27:47;;;;;;;1.02;0.93;;;18.40;60.20;;;;;;5021671;28;20025;-84
2023/07/18 04:30:13;;;;;;;1.45;1.10;;;18.40;60.20;;;;;;5054853;28;20176;-81
2023/07/18 04:32:41;;;;;;;1.17;1.08;;;18.40;60.20;;;;;;5054160;28;20057;-80
2023/07/18 04:35:08;;;;;;;1.10;1.00;;;18.40;60.30;;;;;;5038002;28;20029;-84
2023/07/18 04:37:34;;;;;;;1.20;1.00;;;18.40;60.30;;;;;;5038243;28;20504;-80
2023/07/18 04:39:59;;;;;;;1.27;1.17;;;18.40;60.30;;;;;;5055883;28;20064;-79
2023/07/18 04:42:25;;;;;;;1.30;0.77;;;18.30;60.30;;;;;;5038406;28;20033;-80
2023/07/18 04:44:51;;;;;;;2.00;0.90;;;18.30;60.30;;;;;;5055513;28;20125;-81
2023/07/18 04:47:17;;;;;;;2.13;1.10;;;18.30;60.30;;;;;;5038189;28;20381;-80
2023/07/18 04:49:43;;;;;;;1.83;1.35;;;18.30;60.40;;;;;;5054363;28;20033;-80
2023/07/18 04:52:09;;;;;;;1.60;1.30;;;18.30;60.40;;;;;;5020562;28;20108;-80
2023/07/18 04:54:35;;;;;;;1.80;1.15;;;18.30;60.50;;;;;;5021009;28;20056;-79
2023/07/18 04:57:01;;;;;;;2.13;1.30;;;18.30;60.50;;;;;;5054891;28;20037;-80
2023/07/18 04:59:26;;;;;;;1.45;1.30;;;18.30;60.50;;;;;;5055195;28;20057;-80
2023/07/18 05:01:55;;;;;;;1.40;1.13;;;18.20;60.50;;;;;;5037052;28;20501;-79
2023/07/18 05:04:21;;;;;;;1.60;1.20;;;18.20;60.50;;;;;;5053804;28;20119;-80
2023/07/18 05:06:48;;;;;;;1.33;1.10;;;18.20;60.50;;;;;;5037070;28;20079;-79
2023/07/18 05:09:15;;;;;;;2.53;1.30;;;18.20;61.20;;;;;;5053648;28;20025;-80
2023/07/18 05:11:41;;;;;;;1.38;1.10;;;18.20;60.60;;;;;;5054089;28;20159;-81
2023/07/18 05:14:06;;;;;;;1.63;1.30;;;18.20;60.60;;;;;;5037748;28;20473;-80
2023/07/18 05:16:32;;;;;;;3.40;1.30;;;18.20;60.60;;;;;;5037396;28;20382;-80
2023/07/18 05:18:58;;;;;;;1.35;1.20;;;18.20;60.70;;;;;;5053952;28;20440;-80
2023/07/18 05:21:24;;;;;;;1.77;1.20;;;18.20;60.70;;;;;;5037784;28;20432;-79
2023/07/18 05:23:50;;;;;;;1.88;1.38;;;18.20;60.70;;;;;;5037549;28;20041;-82
2023/07/18 05:26:15;;;;;;;1.17;1.08;;;18.20;60.70;;;;;;5021010;28;20347;-80
2023/07/18 05:28:41;;;;;;;1.20;1.10;;;18.20;60.80;;;;;;5053417;28;20044;-80
2023/07/18 05:31:10;;;;;;;2.28;1.42;;;18.20;60.80;;;;;;5036495;28;20370;-80
2023/07/18 05:33:36;;;;;;;1.50;1.20;;;18.20;60.80;;;;;;5037275;28;20048;-81
2023/07/18 05:36:02;;;;;;;1.42;1.30;;;18.20;60.80;;;;;;5036668;28;20044;-80
2023/07/18 05:38:28;;;;;;;1.35;1.17;;;18.20;60.90;;;;;;5053159;28;20025;-79
2023/07/18 05:40:54;;;;;;;1.88;1.60;;;18.20;60.90;;;;;;5036669;28;20377;-78
2023/07/18 05:43:19;;;;;;;1.58;1.35;;;18.20;60.90;;;;;;5052780;28;20461;-79
2023/07/18 05:45:45;;;;;;;1.85;1.42;;;18.20;60.80;;;;;;5040132;28;20039;-78
2023/07/18 05:48:11;;;;;;;1.88;1.60;;;18.20;60.80;;;;;;5053616;28;20370;-78
2023/07/18 05:50:37;;;;;;;1.73;1.35;;;18.20;60.80;;;;;;5036350;28;20397;-79
2023/07/18 05:53:03;;;;;;;2.22;1.50;;;18.20;60.80;;;;;;5036116;28;20060;-79
2023/07/18 05:55:28;;;;;;;1.30;1.20;;;18.20;60.80;;;;;;5036435;28;20401;-79
2023/07/18 05:57:55;;;;;;;2.28;1.50;;;18.20;60.90;;;;;;5052685;28;20028;-81
2023/07/18 06:00:21;;;;;;;2.50;1.27;;;18.30;60.90;;;;;;5053240;28;20059;-82
2023/07/18 06:02:48;;;;;;;1.90;1.35;;;18.30;60.90;;;;;;5036029;28;20094;-82
2023/07/18 06:05:14;;;;;;;1.42;1.30;;;18.20;60.90;;;;;;5035844;28;20025;-83
2023/07/18 06:07:40;;;;;;;1.60;1.40;;;18.30;61.00;;;;;;5054410;28;20080;-84
2023/07/18 06:10:07;;;;;;;2.25;1.40;;;18.30;60.90;;;;;;5052757;28;20090;-83
2023/07/18 06:12:33;;;;;;;2.03;1.40;;;18.30;61.00;;;;;;5036163;28;20029;-83
2023/07/18 06:14:59;;;;;;;2.22;1.38;;;18.30;61.00;;;;;;5036120;28;20032;-83
2023/07/18 06:17:25;;;;;;;2.03;1.48;;;18.30;60.90;;;;;;5053007;28;20041;-82
2023/07/18 06:19:50;;;;;;;1.60;1.40;;;18.30;60.90;;;;;;5052307;28;20029;-84
2023/07/18 06:22:16;;;;;;;1.73;1.25;;;18.30;60.90;;;;;;5036011;28;20040;-81
2023/07/18 06:24:42;;;;;;;2.85;1.40;;;18.30;61.60;;;;;;5069278;28;20029;-81
2023/07/18 06:27:10;;;;;;;1.50;1.40;;;18.30;60.90;;;;;;5019700;28;20114;-82
2023/07/18 06:29:36;;;;;;;2.10;1.30;;;18.30;60.90;;;;;;5035528;28;20060;-81
2023/07/18 06:32:04;;;;;;;2.25;1.65;;;18.30;60.90;;;;;;5035816;28;20033;-82
2023/07/18 06:34:30;;;;;;;1.40;1.30;;;18.30;60.90;;;;;;5052235;28;20037;-81
2023/07/18 06:37:02;;;;;;;1.88;1.40;;;18.40;60.90;;;;;;5052281;28;20037;-81
2023/07/18 06:39:31;;;;;;;2.47;1.60;;;18.40;60.90;;;;;;5051952;28;20033;-82
2023/07/18 06:41:57;;;;;;;2.03;1.52;;;18.40;60.90;;;;;;5035632;28;20056;-81
2023/07/18 06:44:23;;;;;;;1.77;1.30;;;18.40;60.90;;;;;;5035859;28;20032;-82
2023/07/18 06:46:50;;;;;;;2.08;1.40;;;18.40;60.90;;;;;;5035649;28;20358;-82
2023/07/18 06:49:18;;;;;;;1.33;1.23;;;18.40;60.90;;;;;;5052123;28;20079;-84
2023/07/18 06:51:44;;;;;;;2.20;1.50;;;18.50;60.90;;;;;;5052187;28;20033;-82
2023/07/18 06:54:10;;;;;;;3.03;1.50;;;18.50;60.90;;;;;;5035142;28;20115;-82
2023/07/18 06:56:38;;;;;;;1.75;1.35;;;18.50;60.90;;;;;;5041779;28;20025;-82
2023/07/18 06:59:04;;;;;;;1.75;1.38;;;18.50;60.80;;;;;;5058649;28;20031;-82
2023/07/18 07:01:32;;;;;;;2.63;1.60;;;18.50;60.80;;;;;;5042492;28;20389;-82
2023/07/18 07:03:58;;;;;;;1.48;1.17;;;18.50;60.80;;;;;;5009788;28;20041;-83
2023/07/18 07:06:24;;;;;;;2.58;1.40;;;18.50;60.70;;;;;;5058238;28;20497;-82
2023/07/18 07:08:51;;;;;;;1.40;1.30;;;18.50;60.70;;;;;;5042089;28;20044;-82
2023/07/18 07:11:16;;;;;;;1.65;1.30;;;18.60;60.80;;;;;;5058662;28;20029;-81
2023/07/18 07:13:43;;;;;;;1.65;1.27;;;18.60;60.80;;;;;;5042837;28;20037;-81
2023/07/18 07:16:08;;;;;;;2.28;1.40;;;18.60;60.70;;;;;;5041619;28;20124;-81
2023/07/18 07:18:34;;;;;;;1.63;1.40;;;18.60;60.70;;;;;;5041875;28;20187;-81
2023/07/18 07:21:01;;;;;;;1.40;1.30;;;18.60;60.70;;;;;;5041832;28;20021;-81
2023/07/18 07:23:28;;;;;;;1.73;1.33;;;18.60;60.70;;;;;;5060491;28;20041;-79
2023/07/18 07:25:54;;;;;;;1.30;1.20;;;18.60;60.70;;;;;;5058432;28;20029;-81
2023/07/18 07:28:22;;;;;;;2.40;1.30;;;18.70;60.80;;;;;;5042007;28;20044;-80
2023/07/18 07:30:49;;;;;;;2.15;1.48;;;18.70;60.80;;;;;;5059454;28;20037;-81
2023/07/18 07:33:15;;;;;;;2.08;1.58;;;18.80;60.80;;;;;;5009476;28;20232;-81
2023/07/18 07:35:41;;;;;;;1.70;1.27;;;18.70;60.70;;;;;;5058254;28;20068;-81
2023/07/18 07:38:06;;;;;;;1.75;1.35;;;18.80;60.70;;;;;;5025454;28;20033;-81
2023/07/18 07:40:32;;;;;;;2.67;1.40;;;18.80;61.30;;;;;;5041399;28;20036;-81
2023/07/18 07:42:58;;;;;;;1.13;1.02;;;18.90;60.60;;;;;;5058946;28;20057;-81
2023/07/18 07:45:24;;;;;;;1.30;1.20;;;18.90;60.50;;;;;;5057909;28;20087;-81
2023/07/18 07:47:53;;;;;;;1.10;1.02;;;19.00;60.40;;;;;;5058623;28;20029;-81
2023/07/18 07:50:19;;;;;;;1.55;1.20;;;19.00;60.40;;;;;;5058557;28;20422;-81
2023/07/18 07:52:45;;;;;;;1.35;1.17;;;19.10;60.30;;;;;;5060589;28;20096;-80
2023/07/18 07:55:11;;;;;;;2.60;1.35;;;19.10;60.20;;;;;;5078361;28;20028;-80
2023/07/18 07:57:40;;;;;;;1.42;1.10;;;19.20;60.20;;;;;;5045025;28;20119;-81
2023/07/18 08:00:07;;;;;;;1.45;1.05;;;19.20;60.00;;;;;;5046051;28;20040;-80
2023/07/18 08:02:36;;;;;;;1.77;1.35;;;19.30;59.90;;;;;;5061678;28;20081;-81
2023/07/18 08:05:01;;;;;;;1.38;1.20;;;19.40;59.90;;;;;;5044618;28;20028;-81
2023/07/18 08:07:30;;;;;;;1.38;1.10;;;19.40;59.70;;;;;;5010055;28;20598;-81
2023/07/18 08:09:56;;;;;;;1.70;1.38;;;19.50;59.60;;;;;;5058397;28;20116;-81
2023/07/18 08:12:22;;;;;;;1.00;0.90;;;19.60;59.50;;;;;;5042224;28;20037;-82
2023/07/18 08:14:48;;;;;;;1.90;1.15;;;19.70;59.40;;;;;;5008672;28;20181;-81
2023/07/18 08:17:14;;;;;;;1.48;1.13;;;19.80;59.30;;;;;;5058187;28;20032;-82
2023/07/18 08:19:40;;;;;;;2.15;1.35;;;19.80;59.20;;;;;;5058084;28;20127;-82
2023/07/18 08:22:08;;;;;;;1.45;1.25;;;19.90;59.00;;;;;;5041451;28;20274;-81
2023/07/18 08:24:34;;;;;;;1.50;1.15;;;20.00;59.00;;;;;;5041827;28;20044;-80
2023/07/18 08:27:00;;;;;;;2.97;1.58;;;20.10;58.90;;;;;;5057955;28;20028;-80
2023/07/18 08:29:33;;;;;;;1.48;1.15;;;20.20;58.80;;;;;;5058129;28;20444;-81
2023/07/18 08:31:59;;;;;;;1.92;1.08;;;20.30;58.70;;;;;;5057720;28;20039;-82
2023/07/18 08:34:25;;;;;;;2.67;1.40;;;20.40;58.60;;;;;;5057412;28;20029;-81
2023/07/18 08:36:51;;;;;;;1.40;1.02;;;20.40;58.50;;;;;;5057523;28;20090;-81
2023/07/18 08:39:17;;;;;;;1.52;1.02;;;20.50;58.40;;;;;;5041119;28;20072;-81
2023/07/18 08:41:44;;;;;;;1.10;1.00;;;20.60;58.40;;;;;;5057473;28;20033;-80
2023/07/18 08:44:13;;;;;;;1.13;1.02;;;20.70;58.30;;;;;;5075762;28;20090;-80
2023/07/18 08:46:47;;;;;;;1.55;1.02;;;20.80;58.20;;;;;;5057850;28;20117;-81
2023/07/18 08:49:16;;;;;;;1.05;0.95;;;20.90;58.10;;;;;;5042069;28;20036;-81
2023/07/18 08:51:43;;;;;;;0.95;0.90;;;21.00;58.00;;;;;;5057241;28;20028;-81
2023/07/18 08:54:10;;;;;;;1.27;1.10;;;21.10;58.00;;;;;;5074978;28;20057;-81
2023/07/18 08:56:38;;;;;;;2.30;1.40;;;21.20;57.90;;;;;;5057623;28;20051;-80
2023/07/18 08:59:03;;;;;;;1.08;0.90;;;21.20;57.80;;;;;;5040448;28;20040;-81
2023/07/18 09:01:29;;;;;;;1.10;0.98;;;21.30;57.70;;;;;;5057261;28;20020;-83
2023/07/18 09:03:55;;;;;;;0.80;0.80;;;21.40;57.70;;;;;;5008206;28;20131;-80
2023/07/18 09:06:21;;;;;;;1.55;1.20;;;21.50;57.60;;;;;;5040865;28;20453;-80
2023/07/18 09:08:48;;;;;;;1.00;0.90;;;21.60;57.60;;;;;;5040568;28;20040;-80
2023/07/18 09:11:18;;;;;;;1.20;1.10;;;21.70;57.60;;;;;;5057327;28;20099;-82
2023/07/18 09:13:44;;;;;;;1.35;0.80;;;21.80;57.60;;;;;;5075390;28;20043;-78
2023/07/18 09:16:18;;;;;;;1.63;1.15;;;21.90;57.50;;;;;;5074627;28;20033;-81
2023/07/18 09:18:55;;;;;;;1.10;0.80;;;22.00;57.50;;;;;;5073939;28;20099;-81
2023/07/18 09:21:23;;;;;;;1.15;1.00;;;22.10;57.50;;;;;;5057281;28;20109;-78
2023/07/18 09:23:50;;;;;;;1.83;1.10;;;22.20;57.40;;;;;;5060177;28;20032;-81
2023/07/18 09:26:20;;;;;;;0.90;0.80;;;22.20;57.30;;;;;;5040533;28;20032;-81
2023/07/18 09:28:47;;;;;;;1.58;0.90;;;22.30;57.30;;;;;;5056693;28;20036;-81
2023/07/18 09:31:21;;;;;;;1.30;1.00;;;22.40;57.30;;;;;;5073766;28;20024;-84
2023/07/18 09:33:49;;;;;;;0.82;0.77;;;22.50;57.30;;;;;;5040026;28;20142;-81
2023/07/18 09:36:20;;;;;;;1.08;0.90;;;22.60;57.20;;;;;;5039674;28;20040;-81
2023/07/18 09:38:47;;;;;;;1.35;1.00;;;22.70;57.30;;;;;;5039973;28;20085;-81
2023/07/18 09:41:18;;;;;;;1.63;1.05;;;22.70;57.20;;;;;;5056646;28;20028;-84
2023/07/18 09:43:44;;;;;;;0.82;0.68;;;22.90;57.20;;;;;;5056797;28;20025;-81
2023/07/18 09:46:15;;;;;;;0.75;0.60;;;22.90;57.10;;;;;;5040045;28;20025;-80
2023/07/18 09:48:42;;;;;;;0.80;0.77;;;23.00;57.20;;;;;;5039795;28;20052;-81
2023/07/18 09:51:16;;;;;;;0.60;0.60;;;23.10;57.10;;;;;;5039951;28;20029;-81
2023/07/18 09:53:46;;;;;;;0.77;0.60;;;23.20;57.10;;;;;;5056093;28;20086;-81
2023/07/18 09:56:14;;;;;;;1.05;0.85;;;23.30;57.10;;;;;;5055922;28;20020;-80
2023/07/18 09:58:43;;;;;;;0.85;0.60;;;23.50;57.10;;;;;;5056059;28;20458;-81
2023/07/18 10:01:11;;;;;;;0.95;0.75;;;23.50;57.00;;;;;;5039956;28;20411;-79
2023/07/18 10:03:39;;;;;;;1.38;0.90;;;23.60;56.90;;;;;;5074221;28;20028;-79
2023/07/18 10:06:09;;;;;;;0.70;0.70;;;23.70;56.90;;;;;;5056005;28;20039;-79
2023/07/18 10:08:40;;;;;;;0.77;0.77;;;23.80;56.80;;;;;;5073657;28;20107;-79
2023/07/18 10:11:11;;;;;;;0.95;0.80;;;23.90;56.80;;;;;;5073634;28;20032;-79
2023/07/18 10:13:55;;;;;;;0.80;0.80;;;24.00;56.70;;;;;;5023574;28;20082;-79
2023/07/18 10:16:22;;;;;;;0.75;0.75;;;24.10;56.70;;;;;;5055939;28;20138;-79
2023/07/18 10:18:52;;;;;;;0.77;0.65;;;24.20;56.50;;;;;;5006665;28;20389;-79
2023/07/18 10:21:32;;;;;;;0.95;0.77;;;24.30;56.50;;;;;;5039250;28;20495;-80
2023/07/18 10:24:23;;;;;;;0.52;0.52;;;24.40;56.50;;;;;;5073500;28;20036;-80
2023/07/18 10:26:52;;;;;;;0.68;0.68;;;24.50;56.30;;;;;;5040999;28;20036;-79
2023/07/18 10:29:18;;;;;;;0.63;0.63;;;24.60;56.20;;;;;;5055549;28;20040;-82
2023/07/18 10:31:45;;;;;;;0.60;0.60;;;24.70;56.10;;;;;;5039717;28;20037;-79
2023/07/18 10:34:16;;;;;;;0.70;0.70;;;24.80;56.10;;;;;;5055539;28;20115;-80
2023/07/18 10:36:59;;;;;;;0.77;0.68;;;24.80;56.00;;;;;;5073328;28;20029;-80
2023/07/18 10:39:41;;;;;;;0.60;0.60;;;25.00;56.00;;;;;;5055367;28;20085;-80
2023/07/18 10:42:23;;;;;;;1.77;0.77;;;25.10;55.90;;;;;;5055793;28;20111;-81
2023/07/18 10:44:59;;;;;;;0.52;0.52;;;25.10;55.80;;;;;;5055316;28;20028;-80
2023/07/18 10:47:26;;;;;;;0.60;0.60;;;25.20;55.70;;;;;;5055702;28;20543;-79
2023/07/18 10:49:52;;;;;;;0.82;0.77;;;25.30;55.70;;;;;;5038885;28;20128;-80
2023/07/18 10:52:20;;;;;;;1.70;0.82;;;25.40;55.70;;;;;;5055603;28;20479;-80
2023/07/18 10:54:56;;;;;;;0.50;0.50;;;25.50;55.70;;;;;;5051697;28;20060;-81
2023/07/18 10:57:32;;;;;;;0.50;0.50;;;25.60;55.70;;;;;;5052071;28;20033;-80
2023/07/18 10:59:59;;;;;;;0.40;0.40;;;25.70;55.80;;;;;;5035752;28;20060;-80
2023/07/18 11:02:26;;;;;;;0.77;0.68;;;25.70;55.70;;;;;;5053568;28;20438;-80
2023/07/18 11:04:53;;;;;;;0.80;0.70;;;25.80;55.70;;;;;;5052802;28;20025;-80
2023/07/18 11:07:33;;;;;;;0.70;0.70;;;25.80;55.70;;;;;;5051963;28;20029;-79
2023/07/18 11:09:59;;;;;;;0.50;0.50;;;25.90;55.90;;;;;;5052161;28;20032;-79
2023/07/18 11:12:25;;;;;;;0.60;0.50;;;26.00;55.90;;;;;;5051988;28;20036;-80
2023/07/18 11:14:51;;;;;;;1.02;0.68;;;26.00;55.90;;;;;;5035025;28;20037;-80
2023/07/18 11:17:17;;;;;;;0.82;0.63;;;26.10;56.00;;;;;;5052185;28;20064;-80
2023/07/18 11:19:44;;;;;;;0.70;0.70;;;26.10;56.10;;;;;;5035539;28;20029;-79
2023/07/18 11:22:10;;;;;;;1.00;0.70;;;26.10;56.20;;;;;;5052827;28;20029;-81
2023/07/18 11:24:36;;;;;;;0.65;0.65;;;26.20;56.40;;;;;;5035228;28;20033;-79
2023/07/18 11:27:23;;;;;;;0.55;0.55;;;26.20;56.50;;;;;;5052864;28;20060;-79
2023/07/18 11:30:01;;;;;;;0.60;0.60;;;26.20;56.70;;;;;;5035216;28;20381;-80
2023/07/18 11:32:47;;;;;;;0.77;0.52;;;26.30;57.50;;;;;;5052143;28;20056;-80
2023/07/18 11:35:22;;;;;;;0.90;0.60;;;26.20;56.90;;;;;;5071156;28;20046;-79
2023/07/18 11:37:51;;;;;;;1.08;0.60;;;26.30;57.00;;;;;;5056120;28;20040;-80
2023/07/18 11:40:25;;;;;;;0.50;0.50;;;26.30;57.20;;;;;;5056069;28;20029;-80
2023/07/18 11:42:55;;;;;;;0.63;0.60;;;26.30;57.40;;;;;;5064011;28;20072;-79
2023/07/18 11:45:23;;;;;;;1.23;0.73;;;26.30;57.40;;;;;;5062560;28;20067;-80
2023/07/18 11:47:55;;;;;;;1.02;0.70;;;26.30;57.60;;;;;;5057142;28;20029;-80
2023/07/18 11:50:24;;;;;;;0.70;0.60;;;26.40;57.70;;;;;;5055276;28;20033;-80
2023/07/18 11:52:51;;;;;;;0.57;0.50;;;26.40;57.80;;;;;;5057341;28;20036;-80
2023/07/18 11:55:19;;;;;;;0.90;0.52;;;26.40;57.90;;;;;;5044223;28;20060;-80
2023/07/18 11:57:45;;;;;;;0.50;0.50;;;26.40;58.00;;;;;;5063093;28;20148;-80
2023/07/18 12:00:12;;;;;;;0.50;0.50;;;26.40;58.00;;;;;;5045003;28;20032;-80
2023/07/18 12:02:41;;;;;;;0.50;0.45;;;26.40;58.00;;;;;;5055604;28;20234;-81
2023/07/18 12:05:08;;;;;;;0.73;0.50;;;26.50;58.20;;;;;;5055422;28;20086;-80
2023/07/18 12:07:34;;;;;;;0.60;0.60;;;26.50;58.30;;;;;;5057047;28;20043;-80
2023/07/18 12:10:01;;;;;;;1.60;0.65;;;26.40;58.20;;;;;;5054618;28;20029;-81
2023/07/18 12:12:27;;;;;;;0.40;0.40;;;26.50;58.30;;;;;;5039056;28;20033;-82
2023/07/18 12:14:56;;;;;;;0.70;0.57;;;26.50;58.30;;;;;;5056250;28;20049;-79
2023/07/18 12:17:21;;;;;;;0.52;0.50;;;26.50;58.40;;;;;;5055811;28;20059;-81
2023/07/18 12:19:50;;;;;;;1.23;0.63;;;26.50;58.40;;;;;;5055613;28;20430;-80
2023/07/18 12:22:17;;;;;;;0.40;0.40;;;26.50;58.30;;;;;;5038157;28;20045;-80
2023/07/18 12:24:43;;;;;;;0.60;0.60;;;26.50;58.20;;;;;;5054604;28;20044;-79
2023/07/18 12:27:09;;;;;;;0.88;0.70;;;26.50;58.20;;;;;;5055291;28;20034;-80
2023/07/18 12:29:36;;;;;;;0.30;0.30;;;26.50;58.10;;;;;;5054924;28;20034;-79
2023/07/18 12:32:03;;;;;;;0.88;0.60;;;26.50;58.10;;;;;;5054524;28;20059;-80
2023/07/18 12:34:29;;;;;;;0.85;0.60;;;26.50;57.80;;;;;;5055434;28;20497;-81
2023/07/18 12:36:55;;;;;;;0.98;0.50;;;26.50;57.70;;;;;;5038016;28;20058;-79
2023/07/18 12:39:22;;;;;;;1.75;0.80;;;26.60;57.60;;;;;;5038328;28;20041;-80
2023/07/18 12:41:49;;;;;;;0.88;0.60;;;26.60;57.60;;;;;;5054495;28;20040;-80
2023/07/18 12:44:23;;;;;;;1.33;0.80;;;26.50;57.50;;;;;;5021488;28;20048;-80
2023/07/18 12:46:49;;;;;;;1.25;0.60;;;26.50;57.40;;;;;;5040213;28;20096;-80
2023/07/18 12:49:15;;;;;;;0.82;0.80;;;26.60;57.40;;;;;;5054799;28;20049;-80
2023/07/18 12:51:41;;;;;;;0.65;0.65;;;26.50;57.30;;;;;;5054635;28;20025;-80